createdAt,value
2023-03-22T00:00:17.675Z,70.13
2023-03-22T00:05:40.825Z,67.88
2023-03-22T00:10:44.235Z,76.97
2023-03-22T00:15:50.037Z,79.00
2023-03-22T00:21:10.112Z,79.50
2023-03-22T00:26:13.265Z,67.32
2023-03-22T00:31:19.160Z,80.88
2023-03-22T00:36:21.609Z,78.40
2023-03-22T00:41:27.534Z,84.43
2023-03-22T00:46:31.428Z,74.20
2023-03-22T00:51:34.682Z,78.90
2023-03-22T00:56:38.416Z,85.75
2023-03-22T01:01:50.760Z,89.53
2023-03-22T01:06:59.443Z,84.93
2023-03-22T01:12:02.398Z,81.18
2023-03-22T01:17:05.100Z,80.10
2023-03-22T01:22:08.393Z,69.20
2023-03-22T01:27:12.080Z,76.78
2023-03-22T01:32:16.574Z,75.60
2023-03-22T01:37:19.518Z,82.38
2023-03-22T01:42:23.835Z,89.57
2023-03-22T01:47:28.447Z,82.82
2023-03-22T01:52:33.116Z,86.90
2023-03-22T01:57:41.357Z,81.90
2023-03-22T02:02:51.764Z,81.13
2023-03-22T02:08:02.278Z,76.45
2023-03-22T02:13:23.101Z,80.57
2023-03-22T02:19:21.762Z,80.45
2023-03-22T02:24:56.853Z,76.75
2023-03-22T02:30:27.453Z,84.72
2023-03-22T02:35:44.232Z,84.60
2023-03-22T02:41:18.260Z,77.22
2023-03-22T02:46:34.693Z,80.70
2023-03-22T02:51:42.308Z,79.05
2023-03-22T02:57:07.864Z,74.00
2023-03-22T03:02:18.566Z,62.38
2023-03-22T03:07:23.968Z,62.78
2023-03-22T03:12:30.536Z,55.30
2023-03-22T03:17:56.956Z,55.28
2023-03-22T03:22:59.430Z,50.08
2023-03-22T03:28:10.214Z,50.97
2023-03-22T03:33:18.074Z,46.33
2023-03-22T03:38:24.169Z,49.25
2023-03-22T03:43:27.808Z,46.80
2023-03-22T03:48:33.458Z,46.83
2023-03-22T03:53:36.458Z,49.95
2023-03-22T03:58:38.876Z,44.05
2023-03-22T04:03:41.559Z,48.58
2023-03-22T04:08:46.869Z,48.78
2023-03-22T04:13:52.007Z,45.45
2023-03-22T04:18:58.028Z,44.97
2023-03-22T04:24:05.797Z,47.13
2023-03-22T04:29:12.688Z,41.25
2023-03-22T04:34:22.717Z,43.75
2023-03-22T04:39:42.703Z,43.65
2023-03-22T04:45:17.346Z,42.63
2023-03-22T04:50:28.309Z,42.67
2023-03-22T04:55:35.644Z,46.17
2023-03-22T05:00:39.240Z,41.87
2023-03-22T05:05:51.038Z,43.10
2023-03-22T05:11:11.090Z,41.83
2023-03-22T05:16:16.300Z,40.10
2023-03-22T05:21:28.830Z,32.95
2023-03-22T05:26:38.193Z,36.28
2023-03-22T05:31:40.918Z,34.60
2023-03-22T05:36:43.592Z,37.27
2023-03-22T05:42:04.725Z,37.00
2023-03-22T05:47:10.366Z,38.67
2023-03-22T05:52:27.224Z,37.58
2023-03-22T06:02:56.824Z,33.90
2023-03-22T06:08:01.048Z,35.42
2023-03-22T06:13:06.228Z,33.45
2023-03-22T06:18:10.544Z,37.83
2023-03-22T06:23:20.159Z,39.17
2023-03-22T06:28:29.993Z,30.95
2023-03-22T06:33:35.746Z,46.10
2023-03-22T06:38:50.610Z,48.90
2023-03-22T06:43:54.176Z,32.90
2023-03-22T06:49:15.555Z,35.85
2023-03-22T06:54:18.516Z,37.78
2023-03-22T06:59:21.813Z,33.50
2023-03-22T07:04:27.937Z,30.92
2023-03-22T07:09:31.224Z,21.38
2023-03-22T07:14:36.784Z,25.10
2023-03-22T07:19:53.504Z,30.23
2023-03-22T07:25:00.581Z,26.92
2023-03-22T07:30:09.949Z,27.75
2023-03-22T07:35:18.923Z,26.90
2023-03-22T07:40:25.488Z,25.38
2023-03-22T07:45:29.961Z,26.05
2023-03-22T07:50:56.495Z,26.80
2023-03-22T07:56:00.759Z,47.30
2023-03-22T08:01:05.660Z,55.97
2023-03-22T08:06:46.840Z,31.50
2023-03-22T08:11:56.218Z,24.35
2023-03-22T08:16:58.913Z,22.65
2023-03-22T08:22:09.286Z,23.60
2023-03-22T08:27:46.117Z,21.83
2023-03-22T08:32:49.825Z,19.75
2023-03-22T08:37:56.837Z,20.17
2023-03-22T08:43:10.147Z,27.95
2023-03-22T08:48:39.545Z,30.90
2023-03-22T08:53:58.917Z,19.33
2023-03-22T08:59:23.046Z,21.55
2023-03-22T09:04:45.692Z,20.38
2023-03-22T09:09:48.448Z,21.50
2023-03-22T09:14:51.633Z,26.15
2023-03-22T09:20:09.442Z,22.02
2023-03-22T09:25:16.105Z,18.95
2023-03-22T09:30:22.372Z,15.82
2023-03-22T09:35:25.100Z,13.20
2023-03-22T09:40:35.683Z,11.57
2023-03-22T09:45:45.452Z,10.30
2023-03-22T09:50:52.724Z,9.68
2023-03-22T09:56:09.744Z,13.05
2023-03-22T10:01:35.429Z,10.18
2023-03-22T10:06:38.013Z,11.00
2023-03-22T10:11:48.290Z,9.20
2023-03-22T10:16:51.392Z,10.15
2023-03-22T10:21:55.045Z,9.13
2023-03-22T10:26:57.501Z,8.50
2023-03-22T10:32:26.559Z,12.27
2023-03-22T10:37:33.126Z,11.38
2023-03-22T10:42:37.885Z,10.43
2023-03-22T10:47:49.110Z,12.07
2023-03-22T10:53:04.765Z,7.15
2023-03-22T10:58:17.215Z,5.20
2023-03-22T11:03:36.510Z,9.40
2023-03-22T11:08:45.520Z,10.90
2023-03-22T11:13:59.893Z,6.57
2023-03-22T11:19:03.956Z,8.20
2023-03-22T11:24:08.519Z,10.20
2023-03-22T11:29:18.188Z,32.15
2023-03-22T11:34:21.985Z,11.05
2023-03-22T11:39:28.463Z,8.00
2023-03-22T11:44:35.625Z,8.77
2023-03-22T11:49:50.233Z,8.68
2023-03-22T11:54:54.342Z,7.57
2023-03-22T12:00:14.654Z,6.25
2023-03-22T12:05:27.566Z,6.28
2023-03-22T12:10:38.863Z,5.28
2023-03-22T12:15:48.537Z,8.30
2023-03-22T12:21:01.329Z,6.22
2023-03-22T12:26:08.260Z,8.10
2023-03-22T12:31:16.541Z,5.60
2023-03-22T12:36:46.973Z,8.20
2023-03-22T12:41:50.696Z,3.83
2023-03-22T12:46:57.573Z,5.63
2023-03-22T12:52:12.462Z,7.20
2023-03-22T12:57:16.484Z,5.13
2023-03-22T13:02:30.977Z,4.60
2023-03-22T13:07:39.052Z,5.38
2023-03-22T13:12:41.489Z,3.90
2023-03-22T13:17:45.182Z,6.43
2023-03-22T13:22:47.661Z,3.45
2023-03-22T13:28:19.927Z,3.00
2023-03-22T13:33:28.474Z,4.65
2023-03-22T13:38:35.334Z,3.60
2023-03-22T13:43:50.393Z,5.45
2023-03-22T13:49:04.511Z,4.72
2023-03-22T13:54:19.219Z,3.78
2023-03-22T13:59:34.126Z,4.18
2023-03-22T14:04:51.125Z,8.57
2023-03-22T14:09:57.521Z,3.00
2023-03-22T14:15:02.731Z,5.28
2023-03-22T14:20:13.091Z,6.28
2023-03-22T14:55:50.530Z,4.18
2023-03-22T15:00:56.730Z,5.38
2023-03-22T15:06:01.050Z,6.97
2023-03-22T15:11:11.050Z,4.50
2023-03-22T15:16:19.769Z,6.47
2023-03-22T15:21:23.771Z,5.22
2023-03-22T15:26:27.800Z,4.20
2023-03-22T15:31:33.987Z,7.72
2023-03-22T15:36:39.854Z,13.15
2023-03-22T15:41:44.860Z,25.65
2023-03-22T15:46:50.611Z,7.95
2023-03-22T15:51:53.397Z,4.35
2023-03-22T15:56:56.797Z,2.95
2023-03-22T16:02:01.376Z,4.60
2023-03-22T16:07:07.351Z,4.20
2023-03-22T16:12:15.340Z,8.82
2023-03-22T16:17:23.961Z,5.55
2023-03-22T16:22:26.871Z,19.58
2023-03-22T16:27:29.822Z,13.52
2023-03-22T16:32:32.500Z,13.18
2023-03-22T16:37:36.029Z,17.83
2023-03-22T16:42:40.183Z,26.77
2023-03-22T16:47:43.850Z,26.17
2023-03-22T16:52:46.626Z,28.00
2023-03-22T16:57:56.921Z,152.07
2023-03-22T17:03:02.664Z,121.97
2023-03-22T17:08:17.835Z,121.63
2023-03-22T17:13:20.339Z,68.75
2023-03-22T17:18:23.109Z,60.73
2023-03-22T17:23:26.125Z,66.65
2023-03-22T17:28:29.441Z,73.40
2023-03-22T17:33:32.605Z,66.28
2023-03-22T17:38:44.055Z,60.58
2023-03-22T17:43:59.994Z,58.53
2023-03-22T17:49:09.573Z,48.65
2023-03-22T17:54:43.808Z,68.15
2023-03-22T17:59:48.154Z,161.55
2023-03-22T18:04:52.688Z,244.93
2023-03-22T18:09:57.995Z,305.90
2023-03-22T18:15:10.293Z,235.65
2023-03-22T18:20:34.221Z,120.77
2023-03-22T18:26:12.448Z,119.95
2023-03-22T18:31:53.465Z,129.00
2023-03-22T18:44:44.111Z,78.50
2023-03-22T18:56:57.999Z,68.90
2023-03-22T19:02:39.830Z,78.35
2023-03-22T19:08:41.618Z,72.40
2023-03-22T19:21:23.559Z,58.30
2023-03-22T19:26:58.476Z,50.30
2023-03-22T19:32:19.328Z,59.22
2023-03-22T19:38:02.292Z,70.20
2023-03-22T19:43:41.822Z,89.32
2023-03-22T19:49:03.100Z,108.13
2023-03-22T19:54:27.684Z,95.97
2023-03-22T20:06:10.039Z,54.22
2023-03-22T20:12:03.240Z,51.60
2023-03-22T20:23:34.656Z,56.28
2023-03-22T20:28:39.274Z,43.13
2023-03-22T20:33:44.929Z,47.83
2023-03-22T20:38:48.374Z,49.85
2023-03-22T20:43:51.042Z,41.50
2023-03-22T20:49:00.821Z,42.53
2023-03-22T20:54:25.491Z,33.15
2023-03-22T21:00:11.069Z,30.65
2023-03-22T21:06:05.603Z,23.48
2023-03-22T21:11:35.907Z,21.92
2023-03-22T21:17:21.984Z,24.38
2023-03-22T21:22:44.476Z,25.45
2023-03-22T21:28:11.382Z,20.75
2023-03-22T21:33:46.550Z,25.20
2023-03-22T21:39:04.516Z,17.35
2023-03-22T21:44:16.696Z,14.13
2023-03-22T21:49:49.530Z,13.23
2023-03-22T21:55:02.269Z,11.50
2023-03-22T22:00:29.770Z,14.70
2023-03-22T22:32:11.820Z,14.55
2023-03-22T22:38:02.427Z,10.95
2023-03-22T22:43:58.701Z,10.20
2023-03-22T22:56:24.502Z,7.85
2023-03-22T23:08:51.405Z,9.40
2023-03-22T23:15:29.135Z,11.32
2023-03-22T23:27:26.472Z,13.57
2023-03-22T23:40:34.687Z,19.23
2023-03-22T23:46:13.499Z,27.55
2023-03-22T23:58:04.873Z,22.25
